Zeland M. Deloach Jr. — WDD9083 — position and weather

sailwx.info

Track history (hours):
 
Tides and Currents Weather Stations Pressure Air Temp Water Temp Dewpoint Dewpoint Depression Visibility Wind Speed Wind Dir Waves Ship Positions

Zeland M. Deloach Jr.

Owner: Ingram Barge Company LLC, Nashville, TN. More information available from US FCC via Universal Licensing System and Coast Guard Vessel Documentation Center.

Last reported at 2018-Jun-20 18:06 UTC. Time now 2018-Jun-20 22:37 UTC.
Position N 29°42' W 095°01'.

Length 25 m; draft 3 m.

Type: Towing. MMSI: 367306570.

Date/timePositionNaut miles runAvg speedWind from/ knotsBaromVisibWave heightAir tempDewpointWater temp
2018-Jun-20 18:06N 29°42' W 095°01'1 7.4
2018-Jun-20 17:58N 29°42' W 094°60'3 7.2
2018-Jun-20 17:30N 29°39' W 094°58'4 7.0
2018-Jun-20 16:59N 29°35' W 094°56'12 7.0
2018-Jun-20 15:20N 29°25' W 094°50'2 7.6
2018-Jun-20 15:00N 29°23' W 094°49'2 4.4
2018-Jun-20 14:26N 29°23' W 094°46'3 0.7
2018-Jun-20 09:26N 29°26' W 094°43'0 0.0
2018-Jun-20 09:00N 29°26' W 094°43'3 0.4
2018-Jun-20 02:19N 29°27' W 094°41'6 4.9
2018-Jun-20 01:11N 29°29' W 094°35'1 4.8
2018-Jun-20 01:00N 29°30' W 094°34'2 4.7
2018-Jun-20 00:28N 29°31' W 094°31'3 5.5
2018-Jun-19 23:57N 29°32' W 094°29'2 5.0
2018-Jun-19 23:28N 29°34' W 094°26'2 4.4
2018-Jun-19 23:00N 29°35' W 094°25'2 4.7
2018-Jun-19 22:30N 29°36' W 094°22'3 5.5
2018-Jun-19 22:00N 29°37' W 094°20'3 5.4
2018-Jun-19 21:30N 29°39' W 094°17'3 5.2
2018-Jun-19 21:00N 29°40' W 094°14'3 5.1
2018-Jun-19 20:30N 29°41' W 094°12'2 3.4
2018-Jun-19 20:00N 29°41' W 094°10'2 4.8
2018-Jun-19 19:30N 29°43' W 094°07'2 5.0
2018-Jun-19 19:00N 29°44' W 094°05'3 5.1
2018-Jun-19 18:30N 29°46' W 094°03'3 5.4
2018-Jun-19 18:00N 29°48' W 094°00'2 4.3
2018-Jun-19 17:30N 29°49' W 093°59'2 4.5
2018-Jun-19 17:00N 29°51' W 093°57'3 6.2
2018-Jun-19 16:30N 29°53' W 093°55'3 6.7
2018-Jun-19 16:00N 29°56' W 093°52'1 2.3
2018-Jun-19 15:29N 29°57' W 093°52'0 0.0
2018-Jun-19 15:00N 29°57' W 093°52'0 0.0
2018-Jun-19 14:30N 29°57' W 093°52'0 0.0
2018-Jun-19 14:00N 29°57' W 093°52'0 0.0
2018-Jun-19 13:30N 29°57' W 093°52'0 0.0
2018-Jun-19 13:00N 29°57' W 093°52'0 0.0
2018-Jun-19 12:30N 29°57' W 093°52'0 0.3
2018-Jun-19 12:00N 29°57' W 093°52'0 0.3
2018-Jun-19 11:30N 29°57' W 093°52'0 0.0
2018-Jun-19 11:00N 29°57' W 093°52'0 0.0
2018-Jun-19 10:29N 29°57' W 093°52'0 0.0
2018-Jun-19 10:00N 29°57' W 093°52'0 0.0
2018-Jun-19 09:30N 29°57' W 093°52'0 0.0
2018-Jun-19 09:00N 29°57' W 093°52'0 0.0
2018-Jun-19 08:30N 29°57' W 093°52'0 0.0
2018-Jun-19 08:00N 29°57' W 093°52'0 0.0
2018-Jun-19 07:30N 29°57' W 093°52'0 0.0
2018-Jun-19 07:00N 29°57' W 093°52'0 0.0
2018-Jun-19 06:30N 29°57' W 093°52'0 0.0
2018-Jun-19 06:00N 29°57' W 093°52'0 0.0
2018-Jun-19 05:30N 29°57' W 093°52'0 0.0
2018-Jun-19 05:00N 29°57' W 093°52'0 0.0
2018-Jun-19 04:30N 29°57' W 093°52'0 0.0
2018-Jun-19 04:00N 29°57' W 093°52'0 0.0
2018-Jun-19 03:30N 29°57' W 093°52'0 0.0
2018-Jun-19 03:00N 29°57' W 093°52'0 0.0
2018-Jun-19 02:30N 29°57' W 093°52'0 0.0
2018-Jun-19 02:00N 29°57' W 093°52'0 0.0
2018-Jun-19 01:30N 29°57' W 093°52'0 0.0
2018-Jun-19 01:00N 29°57' W 093°52'0 0.0
2018-Jun-19 00:30N 29°57' W 093°52'0 0.0
2018-Jun-19 00:00N 29°57' W 093°52'0 0.0
2018-Jun-18 23:30N 29°57' W 093°52'0 0.0
2018-Jun-18 23:00N 29°57' W 093°52'0 0.0
2018-Jun-18 22:30N 29°57' W 093°52'0 0.0
2018-Jun-18 22:00N 29°57' W 093°52'0 0.0
2018-Jun-18 21:30N 29°57' W 093°52'0 0.0
2018-Jun-18 21:00N 29°57' W 093°52'0 0.0
2018-Jun-18 20:30N 29°57' W 093°52'0 0.0
2018-Jun-18 20:00N 29°57' W 093°52'0 0.0
2018-Jun-18 19:30N 29°57' W 093°52'0 0.0
2018-Jun-18 19:00N 29°57' W 093°52'0 0.0
2018-Jun-18 18:30N 29°57' W 093°52'0 0.0
2018-Jun-18 18:00N 29°57' W 093°52'0 0.0
2018-Jun-18 17:30N 29°57' W 093°52'0 0.0
2018-Jun-18 17:00N 29°57' W 093°52'0 0.0
2018-Jun-18 16:30N 29°57' W 093°52'1 1.2
2018-Jun-18 16:00N 29°58' W 093°52'3 6.1
2018-Jun-18 15:30N 29°59' W 093°48'3 5.6
2018-Jun-18 15:00N 30°01' W 093°46'0 0.3
2018-Jun-18 14:30N 30°01' W 093°46'0 0.0
2018-Jun-18 14:00N 30°01' W 093°46'0 0.0
2018-Jun-18 13:30N 30°01' W 093°46'0 0.0
2018-Jun-18 13:00N 30°01' W 093°46'0 0.0
2018-Jun-18 12:28N 30°01' W 093°46'0 0.0
2018-Jun-18 12:00N 30°01' W 093°46'0 0.0
2018-Jun-18 11:30N 30°01' W 093°46'0 0.0
2018-Jun-18 11:00N 30°01' W 093°46'0 0.0
2018-Jun-18 10:28N 30°01' W 093°46'0 0.0
2018-Jun-18 10:00N 30°01' W 093°46'0 0.0
2018-Jun-18 09:28N 30°01' W 093°46'0 0.0
2018-Jun-18 09:00N 30°01' W 093°46'0 0.0
2018-Jun-18 08:30N 30°01' W 093°46'0 0.0
2018-Jun-18 08:00N 30°01' W 093°46'0 0.0
2018-Jun-18 07:30N 30°01' W 093°46'0 0.0
2018-Jun-18 07:00N 30°01' W 093°46'0 0.0
2018-Jun-18 06:30N 30°01' W 093°46'0 0.0
2018-Jun-18 06:00N 30°01' W 093°46'0 0.0
2018-Jun-18 05:30N 30°01' W 093°46'0 0.0
2018-Jun-18 05:00N 30°01' W 093°46'0 0.0
2018-Jun-18 04:30N 30°01' W 093°46'0 0.0
2018-Jun-18 04:00N 30°01' W 093°46'0 0.0
2018-Jun-18 03:30N 30°01' W 093°46'0 0.0
2018-Jun-18 02:59N 30°01' W 093°46'0 0.0
2018-Jun-18 02:30N 30°01' W 093°46'0 0.0
2018-Jun-18 02:00N 30°01' W 093°46'0 0.0
2018-Jun-18 01:30N 30°01' W 093°46'0 0.0
2018-Jun-18 01:01N 30°01' W 093°46'0 0.0
2018-Jun-18 00:30N 30°01' W 093°46'0 0.0
2018-Jun-18 00:00N 30°01' W 093°46'0 0.0
2018-Jun-17 23:30N 30°01' W 093°46'0 0.0
2018-Jun-17 23:00N 30°01' W 093°46'0 0.0
2018-Jun-17 22:30N 30°01' W 093°46'0 0.0
2018-Jun-17 22:00N 30°01' W 093°46'0 0.0
2018-Jun-17 21:30N 30°01' W 093°46'0 0.0
2018-Jun-17 21:00N 30°01' W 093°46'0 0.0
2018-Jun-17 20:30N 30°01' W 093°46'0 0.0
2018-Jun-17 20:00N 30°01' W 093°46'0 0.0
2018-Jun-17 19:30N 30°01' W 093°46'0 0.0
2018-Jun-17 19:00N 30°01' W 093°46'0 0.0
2018-Jun-17 18:30N 30°01' W 093°46'0 0.0
2018-Jun-17 18:00N 30°01' W 093°46'0 0.0
2018-Jun-17 17:30N 30°01' W 093°46'0 0.1
2018-Jun-17 17:00N 30°00' W 093°46'0 0.2
2018-Jun-17 16:30N 30°00' W 093°46'2 3.8
2018-Jun-17 16:00N 29°59' W 093°48'3 6.6
2018-Jun-17 15:30N 29°58' W 093°51'2 4.0
2018-Jun-17 15:00N 29°56' W 093°52'0 0.1
2018-Jun-17 14:30N 29°56' W 093°52'0 0.0
2018-Jun-17 14:00N 29°56' W 093°52'0 0.0
2018-Jun-17 13:30N 29°56' W 093°52'0 0.1
2018-Jun-17 13:00N 29°56' W 093°52'0 0.0
2018-Jun-17 12:31N 29°56' W 093°52'2 3.7
2018-Jun-17 12:00N 29°55' W 093°54'3 5.4
2018-Jun-17 11:30N 29°53' W 093°56'2 4.8
2018-Jun-17 11:00N 29°51' W 093°57'2 3.9
2018-Jun-17 10:30N 29°49' W 093°59'2 4.0
2018-Jun-17 09:59N 29°48' W 094°00'2 4.0
2018-Jun-17 09:30N 29°47' W 094°02'2 3.8
2018-Jun-17 09:00N 29°45' W 094°04'2 4.1
2018-Jun-17 08:30N 29°44' W 094°06'2 4.1
2018-Jun-17 08:00N 29°43' W 094°08'2 4.0
2018-Jun-17 07:30N 29°41' W 094°09'2 3.7
2018-Jun-17 07:00N 29°41' W 094°11'2 4.0
2018-Jun-17 06:30N 29°40' W 094°14'2 3.9
2018-Jun-17 06:00N 29°39' W 094°15'2 4.0
2018-Jun-17 05:30N 29°38' W 094°18'2 3.9
2018-Jun-17 05:00N 29°37' W 094°19'2 3.8
2018-Jun-17 04:30N 29°37' W 094°21'2 3.5
2018-Jun-17 04:00N 29°36' W 094°23'2 2.9
2018-Jun-17 03:27N 29°35' W 094°25'1 2.8
2018-Jun-17 02:56N 29°34' W 094°26'19 4.3
2018-Jun-16 22:39N 29°25' W 094°44'1 5.2
2018-Jun-16 22:29N 29°24' W 094°45'0 0.4
2018-Jun-16 21:56N 29°24' W 094°45'1 2.7
2018-Jun-16 21:30N 29°23' W 094°46'0 0.0
2018-Jun-16 21:00N 29°23' W 094°46'1 2.3
2018-Jun-16 20:30N 29°24' W 094°45'0 0.0
2018-Jun-16 19:58N 29°24' W 094°45'2 3.0
2018-Jun-16 19:27N 29°23' W 094°47'2 4.2
2018-Jun-16 19:00N 29°23' W 094°49'13 6.4
2018-Jun-16 16:59N 29°34' W 094°56'4 6.7
2018-Jun-16 16:26N 29°38' W 094°58'3 6.6
2018-Jun-16 15:54N 29°41' W 094°59'2 0.1
2018-Jun-15 17:06N 29°42' W 095°01'1 5.8
2018-Jun-15 16:59N 29°42' W 095°00'3 6.2
2018-Jun-15 16:31N 29°40' W 094°58'3 6.9
2018-Jun-15 16:00N 29°36' W 094°57'4 7.0
2018-Jun-15 15:28N 29°33' W 094°55'7 7.7
2018-Jun-15 14:32N 29°27' W 094°51'0 8.1
2018-Jun-15 14:29N 29°27' W 094°50'4 8.6
2018-Jun-15 14:00N 29°23' W 094°48'2 4.0
2018-Jun-15 13:29N 29°23' W 094°46'2 3.6
2018-Jun-15 12:58N 29°24' W 094°44'2 3.0
2018-Jun-15 12:23N 29°26' W 094°43'0 0.1
2018-Jun-15 12:00N 29°26' W 094°43'0 0.0
2018-Jun-15 11:24N 29°26' W 094°43'0 0.2
2018-Jun-15 10:59N 29°26' W 094°43'0 0.0
2018-Jun-15 10:29N 29°26' W 094°43'0 0.0
2018-Jun-15 09:57N 29°26' W 094°43'1 1.2
2018-Jun-15 09:22N 29°26' W 094°42'2 3.3
2018-Jun-15 08:49N 29°27' W 094°41'5 3.5
2018-Jun-15 07:19N 29°29' W 094°35'6 3.8
2018-Jun-15 05:45N 29°32' W 094°29'0 1.0
2018-Jun-15 05:19N 29°32' W 094°29'4 3.6
2018-Jun-15 04:17N 29°34' W 094°25'1 2.0
2018-Jun-15 03:59N 29°35' W 094°25'1 2.7
2018-Jun-15 03:26N 29°36' W 094°24'1 2.9
2018-Jun-15 03:00N 29°36' W 094°22'2 3.7
2018-Jun-15 02:31N 29°37' W 094°20'2 3.6
2018-Jun-15 02:00N 29°38' W 094°18'2 3.3
2018-Jun-15 01:30N 29°39' W 094°17'2 3.7
2018-Jun-15 01:00N 29°40' W 094°15'2 3.9
2018-Jun-15 00:30N 29°40' W 094°13'2 3.7
2018-Jun-15 00:01N 29°41' W 094°11'2 3.5
2018-Jun-14 23:30N 29°42' W 094°09'2 3.2
2018-Jun-14 23:01N 29°43' W 094°08'2 3.4
2018-Jun-14 22:31N 29°44' W 094°06'2 3.4
2018-Jun-14 22:00N 29°45' W 094°05'2 3.4
2018-Jun-14 21:30N 29°46' W 094°03'2 3.8
2018-Jun-14 21:00N 29°47' W 094°01'2 4.1
2018-Jun-14 20:30N 29°49' W 093°60'2 3.6
2018-Jun-14 20:00N 29°49' W 093°58'2 4.7
2018-Jun-14 19:30N 29°51' W 093°56'2 4.8
2018-Jun-14 19:00N 29°53' W 093°55'2 4.5
2018-Jun-14 18:30N 29°55' W 093°53'2 4.5
2018-Jun-14 18:00N 29°57' W 093°52'2 4.0
2018-Jun-14 17:30N 29°58' W 093°50'2 3.8
2018-Jun-14 17:00N 29°59' W 093°48'2 3.2
2018-Jun-14 16:30N 29°60' W 093°47'2 4.0
2018-Jun-14 16:00N 30°01' W 093°45'2 4.0
2018-Jun-14 15:30N 30°03' W 093°44'2 3.7
2018-Jun-14 15:00N 30°04' W 093°42'2 3.7
2018-Jun-14 14:30N 30°04' W 093°40'2 3.4
2018-Jun-14 14:00N 30°04' W 093°38'2 3.3
2018-Jun-14 13:30N 30°04' W 093°36'2 3.4
2018-Jun-14 13:00N 30°04' W 093°34'2 3.4
2018-Jun-14 12:30N 30°04' W 093°32'2 3.5
2018-Jun-14 12:00N 30°04' W 093°30'2 3.6
2018-Jun-14 11:30N 30°04' W 093°28'2 3.2
2018-Jun-14 11:00N 30°04' W 093°26'2 3.2
2018-Jun-14 10:30N 30°04' W 093°24'2 3.1
2018-Jun-14 10:00N 30°04' W 093°22'1 2.7
2018-Jun-14 09:30N 30°04' W 093°21'1 3.0
2018-Jun-14 09:00N 30°05' W 093°20'1 2.6
2018-Jun-14 08:30N 30°06' W 093°18'1 1.6
2018-Jun-14 08:00N 30°05' W 093°18'1 2.1
2018-Jun-14 07:30N 30°05' W 093°17'0 0.9
2018-Jun-14 07:00N 30°04' W 093°16'1 2.3
2018-Jun-14 06:30N 30°03' W 093°16'2 3.1
2018-Jun-14 06:00N 30°02' W 093°15'0 0.3
2018-Jun-14 05:30N 30°02' W 093°15'0 0.0
2018-Jun-14 05:00N 30°02' W 093°15'0 0.0
2018-Jun-14 04:30N 30°02' W 093°15'0 0.0
2018-Jun-14 04:00N 30°02' W 093°15'0 0.0
2018-Jun-14 03:30N 30°02' W 093°15'0 0.0
2018-Jun-14 03:00N 30°02' W 093°15'0 0.0
2018-Jun-14 02:30N 30°02' W 093°15'0 0.0
2018-Jun-14 02:00N 30°02' W 093°15'0 0.0
2018-Jun-14 01:30N 30°02' W 093°15'0 0.0
2018-Jun-14 01:00N 30°02' W 093°15'0 0.0
2018-Jun-14 00:30N 30°02' W 093°15'0 0.0
2018-Jun-14 00:00N 30°02' W 093°15'1 1.1
2018-Jun-13 23:30N 30°02' W 093°14'2 3.4
2018-Jun-13 23:00N 29°60' W 093°13'1 1.3
2018-Jun-13 22:30N 29°59' W 093°13'0 0.1
2018-Jun-13 22:00N 29°59' W 093°13'0 0.0
2018-Jun-13 21:30N 29°59' W 093°13'0 0.0
2018-Jun-13 21:00N 29°59' W 093°13'0 0.0
2018-Jun-13 20:30N 29°59' W 093°13'0 0.0
2018-Jun-13 20:00N 29°59' W 093°13'0 0.0
2018-Jun-13 19:30N 29°59' W 093°13'0 0.0
2018-Jun-13 19:00N 29°59' W 093°13'0 0.0
2018-Jun-13 18:30N 29°59' W 093°13'0 0.0
2018-Jun-13 18:00N 29°59' W 093°13'0 0.0
2018-Jun-13 17:30N 29°59' W 093°13'0 0.0
2018-Jun-13 16:59N 29°59' W 093°13'0 0.0
2018-Jun-13 16:30N 29°59' W 093°13'0 0.0
2018-Jun-13 15:59N 29°59' W 093°13'0 0.0
2018-Jun-13 15:31N 29°59' W 093°13'0 0.0
2018-Jun-13 15:00N 29°59' W 093°13'0 0.0
2018-Jun-13 14:30N 29°59' W 093°13'0 0.0
2018-Jun-13 14:01N 29°59' W 093°13'0 0.2
2018-Jun-13 13:30N 29°59' W 093°13'2 3.2
2018-Jun-13 13:01N 29°58' W 093°12'0 0.6
2018-Jun-13 12:29N 29°58' W 093°11'0 0.0
2018-Jun-13 12:01N 29°58' W 093°11'0 0.0
2018-Jun-13 11:30N 29°58' W 093°11'0 0.0
2018-Jun-13 11:01N 29°58' W 093°11'0 0.2
2018-Jun-13 10:30N 29°58' W 093°11'0 0.1
2018-Jun-13 09:59N 29°58' W 093°11'1 1.4
2018-Jun-13 09:31N 29°57' W 093°11'2 3.5
2018-Jun-13 09:00N 29°56' W 093°09'2 3.0
2018-Jun-13 08:30N 29°56' W 093°08'0 0.4
2018-Jun-13 08:00N 29°56' W 093°07'1 2.0
2018-Jun-13 07:30N 29°56' W 093°06'36 2.8
2018-Jun-12 18:40N 29°53' W 092°25'1 3.3
2018-Jun-12 18:25N 29°53' W 092°24'1 3.0
2018-Jun-12 18:00N 29°52' W 092°23'2 2.9
2018-Jun-12 17:27N 29°51' W 092°22'1 3.0
2018-Jun-12 17:00N 29°51' W 092°20'1 1.3
2018-Jun-12 16:31N 29°50' W 092°20'1 1.9
2018-Jun-12 16:01N 29°50' W 092°19'0 0.0
2018-Jun-12 15:31N 29°50' W 092°19'0 0.0
2018-Jun-12 15:01N 29°50' W 092°19'0 0.1
2018-Jun-12 14:30N 29°50' W 092°19'1 1.9
2018-Jun-12 14:01N 29°50' W 092°18'2 3.5
2018-Jun-12 13:31N 29°49' W 092°16'2 4.7
2018-Jun-12 13:01N 29°48' W 092°14'1 2.6
2018-Jun-12 12:31N 29°47' W 092°12'1 1.5
2018-Jun-12 12:01N 29°47' W 092°12'0 0.9
2018-Jun-12 11:31N 29°47' W 092°11'1 1.7
2018-Jun-12 11:01N 29°47' W 092°10'1 2.0
2018-Jun-12 10:31N 29°47' W 092°09'1 2.4
2018-Jun-12 10:00N 29°47' W 092°08'1 1.5
2018-Jun-12 09:30N 29°48' W 092°07'1 2.6
2018-Jun-12 09:01N 29°48' W 092°05'2 3.6
2018-Jun-12 08:31N 29°49' W 092°04'2 3.6
2018-Jun-12 08:01N 29°49' W 092°02'2 3.9
2018-Jun-12 07:30N 29°50' W 091°59'2 3.7
2018-Jun-12 07:00N 29°50' W 091°57'2 3.5
2018-Jun-12 06:30N 29°51' W 091°55'  
Track history (hours):
 
Tides and Currents Weather Stations Pressure Air Temp Water Temp Dewpoint Dewpoint Depression Visibility Wind Speed Wind Dir Waves Ship Positions

Zeland M. Deloach Jr.

Owner: Ingram Barge Company LLC, Nashville, TN. More information available from US FCC via Universal Licensing System and Coast Guard Vessel Documentation Center.

Last reported at 2018-Jun-20 18:06 UTC. Time now 2018-Jun-20 22:37 UTC.
Position N 29°42' W 095°01'.

Length 25 m; draft 3 m.

Type: Towing. MMSI: 367306570.

Date/timePositionNaut miles runAvg speedWind from/ knotsBaromVisibWave heightAir tempDewpointWater temp
2018-Jun-20 18:06N 29°42' W 095°01'1 7.4
2018-Jun-20 17:58N 29°42' W 094°60'3 7.2
2018-Jun-20 17:30N 29°39' W 094°58'4 7.0
2018-Jun-20 16:59N 29°35' W 094°56'12 7.0
2018-Jun-20 15:20N 29°25' W 094°50'2 7.6
2018-Jun-20 15:00N 29°23' W 094°49'2 4.4
2018-Jun-20 14:26N 29°23' W 094°46'3 0.7
2018-Jun-20 09:26N 29°26' W 094°43'0 0.0
2018-Jun-20 09:00N 29°26' W 094°43'3 0.4
2018-Jun-20 02:19N 29°27' W 094°41'6 4.9
2018-Jun-20 01:11N 29°29' W 094°35'1 4.8
2018-Jun-20 01:00N 29°30' W 094°34'2 4.7
2018-Jun-20 00:28N 29°31' W 094°31'3 5.5
2018-Jun-19 23:57N 29°32' W 094°29'2 5.0
2018-Jun-19 23:28N 29°34' W 094°26'2 4.4
2018-Jun-19 23:00N 29°35' W 094°25'2 4.7
2018-Jun-19 22:30N 29°36' W 094°22'3 5.5
2018-Jun-19 22:00N 29°37' W 094°20'3 5.4
2018-Jun-19 21:30N 29°39' W 094°17'3 5.2
2018-Jun-19 21:00N 29°40' W 094°14'3 5.1
2018-Jun-19 20:30N 29°41' W 094°12'2 3.4
2018-Jun-19 20:00N 29°41' W 094°10'2 4.8
2018-Jun-19 19:30N 29°43' W 094°07'2 5.0
2018-Jun-19 19:00N 29°44' W 094°05'3 5.1
2018-Jun-19 18:30N 29°46' W 094°03'3 5.4
2018-Jun-19 18:00N 29°48' W 094°00'2 4.3
2018-Jun-19 17:30N 29°49' W 093°59'2 4.5
2018-Jun-19 17:00N 29°51' W 093°57'3 6.2
2018-Jun-19 16:30N 29°53' W 093°55'3 6.7
2018-Jun-19 16:00N 29°56' W 093°52'1 2.3
2018-Jun-19 15:29N 29°57' W 093°52'0 0.0
2018-Jun-19 15:00N 29°57' W 093°52'0 0.0
2018-Jun-19 14:30N 29°57' W 093°52'0 0.0
2018-Jun-19 14:00N 29°57' W 093°52'0 0.0
2018-Jun-19 13:30N 29°57' W 093°52'0 0.0
2018-Jun-19 13:00N 29°57' W 093°52'0 0.0
2018-Jun-19 12:30N 29°57' W 093°52'0 0.3
2018-Jun-19 12:00N 29°57' W 093°52'0 0.3
2018-Jun-19 11:30N 29°57' W 093°52'0 0.0
2018-Jun-19 11:00N 29°57' W 093°52'0 0.0
2018-Jun-19 10:29N 29°57' W 093°52'0 0.0
2018-Jun-19 10:00N 29°57' W 093°52'0 0.0
2018-Jun-19 09:30N 29°57' W 093°52'0 0.0
2018-Jun-19 09:00N 29°57' W 093°52'0 0.0
2018-Jun-19 08:30N 29°57' W 093°52'0 0.0
2018-Jun-19 08:00N 29°57' W 093°52'0 0.0
2018-Jun-19 07:30N 29°57' W 093°52'0 0.0
2018-Jun-19 07:00N 29°57' W 093°52'0 0.0
2018-Jun-19 06:30N 29°57' W 093°52'0 0.0
2018-Jun-19 06:00N 29°57' W 093°52'0 0.0
2018-Jun-19 05:30N 29°57' W 093°52'0 0.0
2018-Jun-19 05:00N 29°57' W 093°52'0 0.0
2018-Jun-19 04:30N 29°57' W 093°52'0 0.0
2018-Jun-19 04:00N 29°57' W 093°52'0 0.0
2018-Jun-19 03:30N 29°57' W 093°52'0 0.0
2018-Jun-19 03:00N 29°57' W 093°52'0 0.0
2018-Jun-19 02:30N 29°57' W 093°52'0 0.0
2018-Jun-19 02:00N 29°57' W 093°52'0 0.0
2018-Jun-19 01:30N 29°57' W 093°52'0 0.0
2018-Jun-19 01:00N 29°57' W 093°52'0 0.0
2018-Jun-19 00:30N 29°57' W 093°52'0 0.0
2018-Jun-19 00:00N 29°57' W 093°52'0 0.0
2018-Jun-18 23:30N 29°57' W 093°52'0 0.0
2018-Jun-18 23:00N 29°57' W 093°52'0 0.0
2018-Jun-18 22:30N 29°57' W 093°52'0 0.0
2018-Jun-18 22:00N 29°57' W 093°52'0 0.0
2018-Jun-18 21:30N 29°57' W 093°52'0 0.0
2018-Jun-18 21:00N 29°57' W 093°52'0 0.0
2018-Jun-18 20:30N 29°57' W 093°52'0 0.0
2018-Jun-18 20:00N 29°57' W 093°52'0 0.0
2018-Jun-18 19:30N 29°57' W 093°52'0 0.0
2018-Jun-18 19:00N 29°57' W 093°52'0 0.0
2018-Jun-18 18:30N 29°57' W 093°52'0 0.0
2018-Jun-18 18:00N 29°57' W 093°52'0 0.0
2018-Jun-18 17:30N 29°57' W 093°52'0 0.0
2018-Jun-18 17:00N 29°57' W 093°52'0 0.0
2018-Jun-18 16:30N 29°57' W 093°52'1 1.2
2018-Jun-18 16:00N 29°58' W 093°52'3 6.1
2018-Jun-18 15:30N 29°59' W 093°48'3 5.6
2018-Jun-18 15:00N 30°01' W 093°46'0 0.3
2018-Jun-18 14:30N 30°01' W 093°46'0 0.0
2018-Jun-18 14:00N 30°01' W 093°46'0 0.0
2018-Jun-18 13:30N 30°01' W 093°46'0 0.0
2018-Jun-18 13:00N 30°01' W 093°46'0 0.0
2018-Jun-18 12:28N 30°01' W 093°46'0 0.0
2018-Jun-18 12:00N 30°01' W 093°46'0 0.0
2018-Jun-18 11:30N 30°01' W 093°46'0 0.0
2018-Jun-18 11:00N 30°01' W 093°46'0 0.0
2018-Jun-18 10:28N 30°01' W 093°46'0 0.0
2018-Jun-18 10:00N 30°01' W 093°46'0 0.0
2018-Jun-18 09:28N 30°01' W 093°46'0 0.0
2018-Jun-18 09:00N 30°01' W 093°46'0 0.0
2018-Jun-18 08:30N 30°01' W 093°46'0 0.0
2018-Jun-18 08:00N 30°01' W 093°46'0 0.0
2018-Jun-18 07:30N 30°01' W 093°46'0 0.0
2018-Jun-18 07:00N 30°01' W 093°46'0 0.0
2018-Jun-18 06:30N 30°01' W 093°46'0 0.0
2018-Jun-18 06:00N 30°01' W 093°46'0 0.0
2018-Jun-18 05:30N 30°01' W 093°46'0 0.0
2018-Jun-18 05:00N 30°01' W 093°46'0 0.0
2018-Jun-18 04:30N 30°01' W 093°46'0 0.0
2018-Jun-18 04:00N 30°01' W 093°46'0 0.0
2018-Jun-18 03:30N 30°01' W 093°46'0 0.0
2018-Jun-18 02:59N 30°01' W 093°46'0 0.0
2018-Jun-18 02:30N 30°01' W 093°46'0 0.0
2018-Jun-18 02:00N 30°01' W 093°46'0 0.0
2018-Jun-18 01:30N 30°01' W 093°46'0 0.0
2018-Jun-18 01:01N 30°01' W 093°46'0 0.0
2018-Jun-18 00:30N 30°01' W 093°46'0 0.0
2018-Jun-18 00:00N 30°01' W 093°46'0 0.0
2018-Jun-17 23:30N 30°01' W 093°46'0 0.0
2018-Jun-17 23:00N 30°01' W 093°46'0 0.0
2018-Jun-17 22:30N 30°01' W 093°46'0 0.0
2018-Jun-17 22:00N 30°01' W 093°46'0 0.0
2018-Jun-17 21:30N 30°01' W 093°46'0 0.0
2018-Jun-17 21:00N 30°01' W 093°46'0 0.0
2018-Jun-17 20:30N 30°01' W 093°46'0 0.0
2018-Jun-17 20:00N 30°01' W 093°46'0 0.0
2018-Jun-17 19:30N 30°01' W 093°46'0 0.0
2018-Jun-17 19:00N 30°01' W 093°46'0 0.0
2018-Jun-17 18:30N 30°01' W 093°46'0 0.0
2018-Jun-17 18:00N 30°01' W 093°46'0 0.0
2018-Jun-17 17:30N 30°01' W 093°46'0 0.1
2018-Jun-17 17:00N 30°00' W 093°46'0 0.2
2018-Jun-17 16:30N 30°00' W 093°46'2 3.8
2018-Jun-17 16:00N 29°59' W 093°48'3 6.6
2018-Jun-17 15:30N 29°58' W 093°51'2 4.0
2018-Jun-17 15:00N 29°56' W 093°52'0 0.1
2018-Jun-17 14:30N 29°56' W 093°52'0 0.0
2018-Jun-17 14:00N 29°56' W 093°52'0 0.0
2018-Jun-17 13:30N 29°56' W 093°52'0 0.1
2018-Jun-17 13:00N 29°56' W 093°52'0 0.0
2018-Jun-17 12:31N 29°56' W 093°52'2 3.7
2018-Jun-17 12:00N 29°55' W 093°54'3 5.4
2018-Jun-17 11:30N 29°53' W 093°56'2 4.8
2018-Jun-17 11:00N 29°51' W 093°57'2 3.9
2018-Jun-17 10:30N 29°49' W 093°59'2 4.0
2018-Jun-17 09:59N 29°48' W 094°00'2 4.0
2018-Jun-17 09:30N 29°47' W 094°02'2 3.8
2018-Jun-17 09:00N 29°45' W 094°04'2 4.1
2018-Jun-17 08:30N 29°44' W 094°06'2 4.1
2018-Jun-17 08:00N 29°43' W 094°08'2 4.0
2018-Jun-17 07:30N 29°41' W 094°09'2 3.7
2018-Jun-17 07:00N 29°41' W 094°11'2 4.0
2018-Jun-17 06:30N 29°40' W 094°14'2 3.9
2018-Jun-17 06:00N 29°39' W 094°15'2 4.0
2018-Jun-17 05:30N 29°38' W 094°18'2 3.9
2018-Jun-17 05:00N 29°37' W 094°19'2 3.8
2018-Jun-17 04:30N 29°37' W 094°21'2 3.5
2018-Jun-17 04:00N 29°36' W 094°23'2 2.9
2018-Jun-17 03:27N 29°35' W 094°25'1 2.8
2018-Jun-17 02:56N 29°34' W 094°26'19 4.3
2018-Jun-16 22:39N 29°25' W 094°44'1 5.2
2018-Jun-16 22:29N 29°24' W 094°45'0 0.4
2018-Jun-16 21:56N 29°24' W 094°45'1 2.7
2018-Jun-16 21:30N 29°23' W 094°46'0 0.0
2018-Jun-16 21:00N 29°23' W 094°46'1 2.3
2018-Jun-16 20:30N 29°24' W 094°45'0 0.0
2018-Jun-16 19:58N 29°24' W 094°45'2 3.0
2018-Jun-16 19:27N 29°23' W 094°47'2 4.2
2018-Jun-16 19:00N 29°23' W 094°49'13 6.4
2018-Jun-16 16:59N 29°34' W 094°56'4 6.7
2018-Jun-16 16:26N 29°38' W 094°58'3 6.6
2018-Jun-16 15:54N 29°41' W 094°59'2 0.1
2018-Jun-15 17:06N 29°42' W 095°01'1 5.8
2018-Jun-15 16:59N 29°42' W 095°00'3 6.2
2018-Jun-15 16:31N 29°40' W 094°58'3 6.9
2018-Jun-15 16:00N 29°36' W 094°57'4 7.0
2018-Jun-15 15:28N 29°33' W 094°55'7 7.7
2018-Jun-15 14:32N 29°27' W 094°51'0 8.1
2018-Jun-15 14:29N 29°27' W 094°50'4 8.6
2018-Jun-15 14:00N 29°23' W 094°48'2 4.0
2018-Jun-15 13:29N 29°23' W 094°46'2 3.6
2018-Jun-15 12:58N 29°24' W 094°44'2 3.0
2018-Jun-15 12:23N 29°26' W 094°43'0 0.1
2018-Jun-15 12:00N 29°26' W 094°43'0 0.0
2018-Jun-15 11:24N 29°26' W 094°43'0 0.2
2018-Jun-15 10:59N 29°26' W 094°43'0 0.0
2018-Jun-15 10:29N 29°26' W 094°43'0 0.0
2018-Jun-15 09:57N 29°26' W 094°43'1 1.2
2018-Jun-15 09:22N 29°26' W 094°42'2 3.3
2018-Jun-15 08:49N 29°27' W 094°41'5 3.5
2018-Jun-15 07:19N 29°29' W 094°35'6 3.8
2018-Jun-15 05:45N 29°32' W 094°29'0 1.0
2018-Jun-15 05:19N 29°32' W 094°29'4 3.6
2018-Jun-15 04:17N 29°34' W 094°25'1 2.0
2018-Jun-15 03:59N 29°35' W 094°25'1 2.7
2018-Jun-15 03:26N 29°36' W 094°24'1 2.9
2018-Jun-15 03:00N 29°36' W 094°22'2 3.7
2018-Jun-15 02:31N 29°37' W 094°20'2 3.6
2018-Jun-15 02:00N 29°38' W 094°18'2 3.3
2018-Jun-15 01:30N 29°39' W 094°17'2 3.7
2018-Jun-15 01:00N 29°40' W 094°15'2 3.9
2018-Jun-15 00:30N 29°40' W 094°13'2 3.7
2018-Jun-15 00:01N 29°41' W 094°11'2 3.5
2018-Jun-14 23:30N 29°42' W 094°09'2 3.2
2018-Jun-14 23:01N 29°43' W 094°08'2 3.4
2018-Jun-14 22:31N 29°44' W 094°06'2 3.4
2018-Jun-14 22:00N 29°45' W 094°05'2 3.4
2018-Jun-14 21:30N 29°46' W 094°03'2 3.8
2018-Jun-14 21:00N 29°47' W 094°01'2 4.1
2018-Jun-14 20:30N 29°49' W 093°60'2 3.6
2018-Jun-14 20:00N 29°49' W 093°58'2 4.7
2018-Jun-14 19:30N 29°51' W 093°56'2 4.8
2018-Jun-14 19:00N 29°53' W 093°55'2 4.5
2018-Jun-14 18:30N 29°55' W 093°53'2 4.5
2018-Jun-14 18:00N 29°57' W 093°52'2 4.0
2018-Jun-14 17:30N 29°58' W 093°50'2 3.8
2018-Jun-14 17:00N 29°59' W 093°48'2 3.2
2018-Jun-14 16:30N 29°60' W 093°47'2 4.0
2018-Jun-14 16:00N 30°01' W 093°45'2 4.0
2018-Jun-14 15:30N 30°03' W 093°44'2 3.7
2018-Jun-14 15:00N 30°04' W 093°42'2 3.7
2018-Jun-14 14:30N 30°04' W 093°40'2 3.4
2018-Jun-14 14:00N 30°04' W 093°38'2 3.3
2018-Jun-14 13:30N 30°04' W 093°36'2 3.4
2018-Jun-14 13:00N 30°04' W 093°34'2 3.4
2018-Jun-14 12:30N 30°04' W 093°32'2 3.5
2018-Jun-14 12:00N 30°04' W 093°30'2 3.6
2018-Jun-14 11:30N 30°04' W 093°28'2 3.2
2018-Jun-14 11:00N 30°04' W 093°26'2 3.2
2018-Jun-14 10:30N 30°04' W 093°24'2 3.1
2018-Jun-14 10:00N 30°04' W 093°22'1 2.7
2018-Jun-14 09:30N 30°04' W 093°21'1 3.0
2018-Jun-14 09:00N 30°05' W 093°20'1 2.6
2018-Jun-14 08:30N 30°06' W 093°18'1 1.6
2018-Jun-14 08:00N 30°05' W 093°18'1 2.1
2018-Jun-14 07:30N 30°05' W 093°17'0 0.9
2018-Jun-14 07:00N 30°04' W 093°16'1 2.3
2018-Jun-14 06:30N 30°03' W 093°16'2 3.1
2018-Jun-14 06:00N 30°02' W 093°15'0 0.3
2018-Jun-14 05:30N 30°02' W 093°15'0 0.0
2018-Jun-14 05:00N 30°02' W 093°15'0 0.0
2018-Jun-14 04:30N 30°02' W 093°15'0 0.0
2018-Jun-14 04:00N 30°02' W 093°15'0 0.0
2018-Jun-14 03:30N 30°02' W 093°15'0 0.0
2018-Jun-14 03:00N 30°02' W 093°15'0 0.0
2018-Jun-14 02:30N 30°02' W 093°15'0 0.0
2018-Jun-14 02:00N 30°02' W 093°15'0 0.0
2018-Jun-14 01:30N 30°02' W 093°15'0 0.0
2018-Jun-14 01:00N 30°02' W 093°15'0 0.0
2018-Jun-14 00:30N 30°02' W 093°15'0 0.0
2018-Jun-14 00:00N 30°02' W 093°15'1 1.1
2018-Jun-13 23:30N 30°02' W 093°14'2 3.4
2018-Jun-13 23:00N 29°60' W 093°13'1 1.3
2018-Jun-13 22:30N 29°59' W 093°13'0 0.1
2018-Jun-13 22:00N 29°59' W 093°13'0 0.0
2018-Jun-13 21:30N 29°59' W 093°13'0 0.0
2018-Jun-13 21:00N 29°59' W 093°13'0 0.0
2018-Jun-13 20:30N 29°59' W 093°13'0 0.0
2018-Jun-13 20:00N 29°59' W 093°13'0 0.0
2018-Jun-13 19:30N 29°59' W 093°13'0 0.0
2018-Jun-13 19:00N 29°59' W 093°13'0 0.0
2018-Jun-13 18:30N 29°59' W 093°13'0 0.0
2018-Jun-13 18:00N 29°59' W 093°13'0 0.0
2018-Jun-13 17:30N 29°59' W 093°13'0 0.0
2018-Jun-13 16:59N 29°59' W 093°13'0 0.0
2018-Jun-13 16:30N 29°59' W 093°13'0 0.0
2018-Jun-13 15:59N 29°59' W 093°13'0 0.0
2018-Jun-13 15:31N 29°59' W 093°13'0 0.0
2018-Jun-13 15:00N 29°59' W 093°13'0 0.0
2018-Jun-13 14:30N 29°59' W 093°13'0 0.0
2018-Jun-13 14:01N 29°59' W 093°13'0 0.2
2018-Jun-13 13:30N 29°59' W 093°13'2 3.2
2018-Jun-13 13:01N 29°58' W 093°12'0 0.6
2018-Jun-13 12:29N 29°58' W 093°11'0 0.0
2018-Jun-13 12:01N 29°58' W 093°11'0 0.0
2018-Jun-13 11:30N 29°58' W 093°11'0 0.0
2018-Jun-13 11:01N 29°58' W 093°11'0 0.2
2018-Jun-13 10:30N 29°58' W 093°11'0 0.1
2018-Jun-13 09:59N 29°58' W 093°11'1 1.4
2018-Jun-13 09:31N 29°57' W 093°11'2 3.5
2018-Jun-13 09:00N 29°56' W 093°09'2 3.0
2018-Jun-13 08:30N 29°56' W 093°08'0 0.4
2018-Jun-13 08:00N 29°56' W 093°07'1 2.0
2018-Jun-13 07:30N 29°56' W 093°06'36 2.8
2018-Jun-12 18:40N 29°53' W 092°25'1 3.3
2018-Jun-12 18:25N 29°53' W 092°24'1 3.0
2018-Jun-12 18:00N 29°52' W 092°23'2 2.9
2018-Jun-12 17:27N 29°51' W 092°22'1 3.0
2018-Jun-12 17:00N 29°51' W 092°20'1 1.3
2018-Jun-12 16:31N 29°50' W 092°20'1 1.9
2018-Jun-12 16:01N 29°50' W 092°19'0 0.0
2018-Jun-12 15:31N 29°50' W 092°19'0 0.0
2018-Jun-12 15:01N 29°50' W 092°19'0 0.1
2018-Jun-12 14:30N 29°50' W 092°19'1 1.9
2018-Jun-12 14:01N 29°50' W 092°18'2 3.5
2018-Jun-12 13:31N 29°49' W 092°16'2 4.7
2018-Jun-12 13:01N 29°48' W 092°14'1 2.6
2018-Jun-12 12:31N 29°47' W 092°12'1 1.5
2018-Jun-12 12:01N 29°47' W 092°12'0 0.9
2018-Jun-12 11:31N 29°47' W 092°11'1 1.7
2018-Jun-12 11:01N 29°47' W 092°10'1 2.0
2018-Jun-12 10:31N 29°47' W 092°09'1 2.4
2018-Jun-12 10:00N 29°47' W 092°08'1 1.5
2018-Jun-12 09:30N 29°48' W 092°07'1 2.6
2018-Jun-12 09:01N 29°48' W 092°05'2 3.6
2018-Jun-12 08:31N 29°49' W 092°04'2 3.6
2018-Jun-12 08:01N 29°49' W 092°02'2 3.9
2018-Jun-12 07:30N 29°50' W 091°59'2 3.7
2018-Jun-12 07:00N 29°50' W 091°57'2 3.5
2018-Jun-12 06:30N 29°51' W 091°55'  

Dump ship's entire track history